Time;durP1;ratioP1;P1;durP2;ratioP2;P2;SDS_P1;SDS_P2;PMS_P1;PMS_P2;Temp;Humidity;BMP_temperature;BMP_pressure;BME280_temperature;BME280_humidity;BME280_pressure;Samples;Min_cycle;Max_cycle;Signal;HPM_P1;HPM_P2
2020/12/04 00:02:26;;;;;;;1.20;0.77;;;14.70;31.40;;;;;;6202881;28;20045;-73
2020/12/04 00:05:27;;;;;;;1.13;0.50;;;14.70;31.20;;;;;;6222434;28;20046;-73
2020/12/04 00:08:28;;;;;;;0.45;0.40;;;14.70;31.30;;;;;;6237505;28;20030;-72
2020/12/04 00:11:34;;;;;;;0.43;0.43;;;14.70;31.40;;;;;;6222523;28;20411;-72
2020/12/04 00:14:35;;;;;;;1.95;0.45;;;14.70;31.20;;;;;;6225108;28;20036;-72
2020/12/04 00:17:36;;;;;;;2.72;0.60;;;14.70;31.30;;;;;;6229847;28;20479;-73
2020/12/04 00:20:38;;;;;;;1.75;0.77;;;14.70;30.80;;;;;;6271460;28;20068;-73
2020/12/04 00:23:39;;;;;;;1.15;0.55;;;14.70;30.80;;;;;;6261410;28;20485;-71
2020/12/04 00:26:40;;;;;;;0.68;0.65;;;14.70;31.00;;;;;;6245573;28;20049;-72
2020/12/04 00:29:40;;;;;;;1.02;0.80;;;14.70;31.30;;;;;;6232882;28;20367;-72
2020/12/04 00:32:41;;;;;;;1.48;0.70;;;14.70;30.90;;;;;;6220083;28;20044;-73
2020/12/04 00:35:42;;;;;;;1.10;0.50;;;14.70;30.50;;;;;;6236169;28;20030;-73
2020/12/04 00:38:43;;;;;;;0.55;0.45;;;14.70;30.70;;;;;;6202714;28;20363;-73
2020/12/04 00:41:44;;;;;;;1.48;0.52;;;14.70;30.50;;;;;;6238280;28;20062;-73
2020/12/04 00:44:45;;;;;;;0.60;0.57;;;14.70;30.50;;;;;;6236741;28;20050;-73
2020/12/04 00:47:46;;;;;;;0.93;0.68;;;14.70;30.30;;;;;;6245707;28;20037;-73
2020/12/04 00:50:47;;;;;;;0.70;0.50;;;14.70;30.30;;;;;;6236534;28;20061;-72
2020/12/04 00:53:50;;;;;;;0.70;0.60;;;14.70;30.50;;;;;;6220684;28;20030;-72
2020/12/04 00:56:53;;;;;;;1.85;0.50;;;14.80;30.80;;;;;;6237478;28;20061;-72
2020/12/04 01:00:06;;;;;;;0.52;0.45;;;14.70;30.40;;;;;;6226117;28;20582;-72
2020/12/04 01:03:07;;;;;;;0.98;0.60;;;14.70;30.50;;;;;;6243110;28;20025;-72
2020/12/04 01:06:11;;;;;;;1.85;0.63;;;14.70;30.60;;;;;;6234695;28;20099;-72
2020/12/04 01:09:13;;;;;;;0.55;0.43;;;14.70;30.70;;;;;;6243014;28;20072;-72
2020/12/04 01:12:14;;;;;;;0.82;0.50;;;14.70;30.70;;;;;;6232166;28;20042;-73
2020/12/04 01:15:15;;;;;;;0.60;0.40;;;14.70;30.70;;;;;;6241209;28;20041;-73
2020/12/04 01:18:17;;;;;;;1.05;0.60;;;14.70;30.80;;;;;;6228738;28;20048;-72
2020/12/04 01:21:18;;;;;;;0.63;0.60;;;14.70;30.60;;;;;;6243386;28;20045;-73
2020/12/04 01:24:19;;;;;;;1.23;1.00;;;14.80;30.90;;;;;;6225141;28;20443;-72
2020/12/04 01:27:20;;;;;;;0.80;0.50;;;14.70;30.70;;;;;;6274475;28;20104;-72
2020/12/04 01:30:21;;;;;;;1.05;0.43;;;14.70;30.70;;;;;;6225330;28;20370;-72
2020/12/04 01:33:22;;;;;;;0.80;0.43;;;14.70;30.90;;;;;;6241377;28;20095;-72
2020/12/04 01:36:23;;;;;;;0.57;0.43;;;14.70;31.10;;;;;;6236407;28;20036;-72
2020/12/04 01:39:24;;;;;;;0.50;0.40;;;14.60;31.10;;;;;;6225018;28;20047;-72
2020/12/04 01:42:25;;;;;;;0.75;0.50;;;14.60;31.20;;;;;;6222851;28;20034;-73
2020/12/04 01:45:27;;;;;;;2.17;0.45;;;14.80;31.70;;;;;;6234670;28;20079;-72
2020/12/04 01:48:27;;;;;;;5.88;0.50;;;14.60;31.70;;;;;;6240355;28;20044;-72
2020/12/04 01:51:30;;;;;;;0.85;0.55;;;14.60;31.90;;;;;;6240865;28;20045;-72
2020/12/04 01:54:33;;;;;;;0.98;0.38;;;14.60;32.10;;;;;;6233041;28;20088;-73
2020/12/04 01:57:38;;;;;;;2.50;0.50;;;14.50;32.30;;;;;;6216071;28;20041;-73
2020/12/04 02:00:39;;;;;;;0.70;0.40;;;14.50;32.50;;;;;;6206117;28;20038;-72
2020/12/04 02:03:41;;;;;;;0.98;0.68;;;14.50;32.70;;;;;;6201600;28;20070;-72
2020/12/04 02:07:03;;;;;;;1.00;0.60;;;14.50;33.00;;;;;;6218614;28;20030;-71
2020/12/04 02:10:12;;;;;;;0.93;0.47;;;14.50;33.10;;;;;;6216854;28;20132;-72
2020/12/04 02:13:14;;;;;;;0.20;0.20;;;14.50;33.20;;;;;;6218896;28;20038;-72
2020/12/04 02:16:19;;;;;;;0.40;0.30;;;14.50;33.40;;;;;;6237965;28;20117;-72
2020/12/04 02:19:24;;;;;;;0.20;0.20;;;14.50;33.60;;;;;;6243064;28;20113;-72
2020/12/04 02:22:25;;;;;;;0.30;0.20;;;14.50;33.70;;;;;;6242589;28;20037;-73
2020/12/04 02:25:26;;;;;;;1.02;0.70;;;14.50;33.80;;;;;;6239227;28;20049;-72
2020/12/04 02:28:31;;;;;;;0.65;0.45;;;14.50;33.90;;;;;;6241596;28;20474;-72
2020/12/04 02:31:32;;;;;;;0.63;0.30;;;14.60;34.10;;;;;;6242904;28;20030;-72
2020/12/04 02:34:33;;;;;;;0.88;0.40;;;14.60;34.20;;;;;;6240948;28;20473;-72
2020/12/04 02:37:34;;;;;;;0.63;0.40;;;14.60;34.40;;;;;;6256842;28;20132;-72
2020/12/04 02:40:35;;;;;;;1.20;0.47;;;14.60;34.50;;;;;;6243254;28;20163;-72
2020/12/04 02:43:36;;;;;;;2.65;0.40;;;14.60;34.50;;;;;;6240381;28;20123;-72
2020/12/04 02:46:38;;;;;;;2.17;0.40;;;14.60;34.70;;;;;;6253428;28;20121;-72
2020/12/04 02:49:38;;;;;;;1.05;0.40;;;14.60;34.80;;;;;;6226911;28;20044;-72
2020/12/04 02:52:39;;;;;;;0.75;0.30;;;14.60;34.90;;;;;;6221692;28;20360;-73
2020/12/04 02:55:40;;;;;;;0.82;0.40;;;14.50;35.00;;;;;;6234007;28;20478;-72
2020/12/04 02:58:41;;;;;;;0.45;0.20;;;14.60;35.10;;;;;;6234776;28;20038;-72
2020/12/04 03:01:42;;;;;;;0.60;0.17;;;14.60;35.20;;;;;;6242413;28;20067;-73
2020/12/04 03:04:43;;;;;;;0.47;0.30;;;14.60;35.20;;;;;;6262228;28;20061;-74
2020/12/04 03:07:44;;;;;;;0.10;0.10;;;14.60;35.30;;;;;;6228822;28;20109;-72
2020/12/04 03:10:45;;;;;;;0.20;0.20;;;14.60;35.40;;;;;;6245216;28;20036;-72
2020/12/04 03:13:46;;;;;;;0.43;0.10;;;14.60;35.50;;;;;;6212593;28;20029;-72
2020/12/04 03:16:48;;;;;;;0.35;0.28;;;14.60;35.70;;;;;;6227597;28;20136;-71
2020/12/04 03:19:49;;;;;;;0.80;0.20;;;14.60;36.00;;;;;;6248533;28;20034;-73
2020/12/04 03:22:49;;;;;;;0.63;0.20;;;14.60;36.20;;;;;;6220736;28;20088;-71
2020/12/04 03:25:52;;;;;;;3.35;0.28;;;14.60;36.50;;;;;;6221133;28;20364;-71
2020/12/04 03:28:53;;;;;;;1.38;0.30;;;14.50;36.60;;;;;;6221084;28;20045;-73
2020/12/04 03:36:16;;;;;;;0.00;0.00;;;14.50;37.00;;;;;;6242701;28;20049;-73
2020/12/04 03:39:17;;;;;;;0.10;0.08;;;14.50;37.30;;;;;;6235522;28;20530;-73
2020/12/04 03:42:17;;;;;;;0.65;0.30;;;14.50;37.60;;;;;;6236177;28;20379;-73
2020/12/04 03:45:18;;;;;;;1.17;0.15;;;14.50;38.00;;;;;;6238029;28;20042;-73
2020/12/04 03:48:19;;;;;;;4.47;0.10;;;14.50;38.40;;;;;;6236879;28;20521;-72
2020/12/04 03:51:20;;;;;;;0.22;0.22;;;14.40;38.90;;;;;;6218184;28;20034;-72
2020/12/04 03:54:21;;;;;;;0.50;0.20;;;14.40;39.30;;;;;;6221465;28;20045;-72
2020/12/04 03:57:22;;;;;;;0.10;0.10;;;14.30;39.60;;;;;;6236282;28;20044;-72
2020/12/04 04:00:24;;;;;;;0.10;0.10;;;14.30;39.60;;;;;;6220167;28;20041;-72
2020/12/04 04:03:25;;;;;;;0.05;0.05;;;14.30;39.70;;;;;;6219586;28;20068;-72
2020/12/04 04:06:26;;;;;;;0.00;0.00;;;14.30;39.70;;;;;;6224053;28;20034;-73
2020/12/04 04:09:27;;;;;;;0.40;0.10;;;14.30;39.90;;;;;;6228276;28;20037;-72
2020/12/04 04:12:28;;;;;;;0.00;0.00;;;14.30;39.90;;;;;;6243947;28;20112;-72
2020/12/04 04:15:29;;;;;;;0.22;0.10;;;14.30;40.00;;;;;;6245423;28;20041;-73
2020/12/04 04:18:30;;;;;;;0.25;0.25;;;14.30;40.10;;;;;;6244004;28;20144;-74
2020/12/04 04:21:31;;;;;;;0.10;0.10;;;14.30;40.20;;;;;;6244959;28;20462;-73
2020/12/04 04:24:32;;;;;;;0.03;0.03;;;14.30;40.40;;;;;;6244951;28;20045;-73
2020/12/04 04:27:32;;;;;;;0.08;0.08;;;14.20;40.40;;;;;;6249596;28;20037;-73
2020/12/04 04:30:33;;;;;;;0.25;0.20;;;14.20;40.50;;;;;;6258420;28;20034;-73
2020/12/04 04:33:38;;;;;;;0.22;0.17;;;14.20;40.60;;;;;;6226560;28;20026;-73
2020/12/04 04:36:40;;;;;;;0.70;0.13;;;14.30;40.70;;;;;;6233949;28;20033;-72
2020/12/04 04:39:43;;;;;;;0.15;0.15;;;14.30;40.70;;;;;;6220593;28;20353;-72
2020/12/04 04:42:44;;;;;;;0.88;0.08;;;14.30;40.80;;;;;;6219638;28;20124;-71
2020/12/04 04:45:46;;;;;;;0.03;0.03;;;14.30;41.20;;;;;;6220341;28;20049;-71
2020/12/04 04:48:54;;;;;;;0.40;0.10;;;14.30;41.10;;;;;;6238373;28;20336;-72
2020/12/04 04:51:56;;;;;;;0.10;0.10;;;14.30;41.00;;;;;;6243532;28;20116;-72
2020/12/04 04:54:57;;;;;;;0.10;0.10;;;14.30;41.00;;;;;;6218869;28;20054;-73
2020/12/04 04:57:59;;;;;;;0.00;0.00;;;14.30;41.10;;;;;;6220079;28;20045;-72
2020/12/04 05:01:00;;;;;;;0.13;0.10;;;14.30;41.60;;;;;;6219778;28;20041;-72
2020/12/04 05:04:01;;;;;;;0.10;0.10;;;14.30;41.70;;;;;;6234759;28;20111;-73
2020/12/04 05:07:08;;;;;;;1.45;0.00;;;14.30;41.90;;;;;;6199696;28;20056;-72
2020/12/04 05:10:10;;;;;;;1.50;0.20;;;14.30;41.90;;;;;;6219376;28;20034;-72
2020/12/04 05:13:12;;;;;;;1.85;0.20;;;14.30;42.20;;;;;;6220080;28;20088;-72
2020/12/04 05:16:28;;;;;;;0.50;0.13;;;14.30;42.30;;;;;;6239666;28;20126;-72
2020/12/04 05:19:37;;;;;;;0.00;0.00;;;14.30;43.20;;;;;;6253547;28;20034;-72
2020/12/04 05:22:39;;;;;;;2.45;0.10;;;14.20;43.10;;;;;;6224503;28;20045;-72
2020/12/04 05:25:43;;;;;;;0.00;0.00;;;14.20;43.30;;;;;;6242486;28;20067;-72
2020/12/04 05:28:47;;;;;;;2.03;0.00;;;14.20;44.10;;;;;;6242272;28;20116;-72
2020/12/04 05:31:49;;;;;;;0.20;0.10;;;14.20;44.40;;;;;;6225689;28;21579;-72
2020/12/04 05:34:51;;;;;;;0.10;0.10;;;14.10;45.30;;;;;;6252136;28;20033;-72
2020/12/04 05:38:15;;;;;;;0.10;0.00;;;14.00;45.60;;;;;;6202366;28;20121;-72
2020/12/04 05:41:15;;;;;;;0.00;0.00;;;13.90;45.60;;;;;;6250867;28;20064;-72
2020/12/04 05:44:17;;;;;;;0.10;0.10;;;13.90;46.20;;;;;;6271745;28;20527;-73
2020/12/04 05:47:19;;;;;;;0.00;0.00;;;13.90;46.40;;;;;;6231568;28;20107;-73
2020/12/04 05:50:20;;;;;;;0.30;0.10;;;13.80;46.50;;;;;;6241112;28;20113;-73
2020/12/04 05:53:24;;;;;;;0.15;0.15;;;13.80;46.30;;;;;;6263348;28;20053;-73
2020/12/04 05:56:26;;;;;;;0.00;0.00;;;13.80;46.10;;;;;;6254247;28;20036;-73
2020/12/04 05:59:27;;;;;;;0.20;0.10;;;13.80;46.00;;;;;;6235754;28;20454;-73
2020/12/04 06:02:27;;;;;;;0.10;0.10;;;13.90;45.90;;;;;;6235990;28;20041;-73
2020/12/04 06:05:29;;;;;;;0.75;0.22;;;13.90;45.90;;;;;;6240058;28;20432;-72
2020/12/04 06:08:30;;;;;;;0.52;0.10;;;13.90;45.90;;;;;;6240282;28;20064;-74
2020/12/04 06:11:43;;;;;;;0.20;0.10;;;13.90;45.70;;;;;;6242002;28;20088;-72
2020/12/04 06:14:44;;;;;;;1.45;0.10;;;14.00;45.70;;;;;;6240114;28;20037;-74
2020/12/04 06:17:45;;;;;;;0.10;0.10;;;14.00;45.70;;;;;;6221356;28;20405;-72
2020/12/04 06:20:51;;;;;;;0.10;0.00;;;14.00;45.70;;;;;;6226898;28;20925;-72
2020/12/04 06:24:07;;;;;;;0.20;0.10;;;14.00;46.00;;;;;;6245219;28;20455;-72
2020/12/04 06:27:07;;;;;;;0.10;0.10;;;14.00;46.00;;;;;;6228914;28;20029;-73
2020/12/04 06:30:15;;;;;;;0.03;0.00;;;14.00;45.80;;;;;;6245538;28;20040;-72
2020/12/04 06:33:33;;;;;;;0.20;0.20;;;14.00;45.90;;;;;;6243058;28;20045;-72
2020/12/04 06:36:35;;;;;;;0.25;0.10;;;14.00;45.80;;;;;;6220258;28;20163;-72
2020/12/04 06:39:37;;;;;;;0.40;0.13;;;14.10;45.90;;;;;;6228876;28;20041;-72
2020/12/04 06:42:38;;;;;;;0.20;0.20;;;14.10;45.90;;;;;;6202364;28;20096;-73
2020/12/04 06:45:57;;;;;;;0.28;0.10;;;14.10;45.80;;;;;;6197954;28;20467;-72
2020/12/04 06:49:38;;;;;;;0.10;0.10;;;14.10;45.80;;;;;;6221324;28;20038;-74
2020/12/04 06:52:39;;;;;;;0.00;0.00;;;14.10;45.80;;;;;;6233200;28;20050;-73
2020/12/04 06:55:41;;;;;;;0.10;0.10;;;14.10;45.80;;;;;;6253855;28;20511;-73
2020/12/04 06:58:42;;;;;;;0.45;0.22;;;14.10;45.90;;;;;;6237529;28;20477;-73
2020/12/04 07:01:43;;;;;;;0.00;0.00;;;14.10;46.00;;;;;;6220094;28;20030;-73
2020/12/04 07:04:46;;;;;;;0.17;0.10;;;14.10;46.20;;;;;;6219818;28;20360;-73
2020/12/04 07:07:47;;;;;;;1.23;0.20;;;14.10;46.50;;;;;;6218789;28;20052;-72
2020/12/04 07:10:53;;;;;;;0.10;0.05;;;14.00;46.70;;;;;;6219809;28;20060;-73
2020/12/04 07:13:53;;;;;;;0.10;0.10;;;14.00;47.20;;;;;;6244933;28;20041;-73
2020/12/04 07:16:55;;;;;;;0.00;0.00;;;13.90;47.50;;;;;;6241377;28;20765;-72
2020/12/04 07:19:57;;;;;;;0.10;0.10;;;13.90;47.70;;;;;;6236554;28;20050;-73
2020/12/04 07:22:58;;;;;;;1.20;0.20;;;13.80;47.90;;;;;;6219658;28;20032;-72
2020/12/04 07:25:59;;;;;;;0.68;0.38;;;13.80;48.10;;;;;;6220169;28;20736;-72
2020/12/04 07:29:00;;;;;;;0.10;0.10;;;13.80;48.20;;;;;;6220912;28;20100;-72
2020/12/04 07:32:01;;;;;;;0.30;0.28;;;13.80;48.30;;;;;;6244792;28;20075;-72
2020/12/04 07:35:02;;;;;;;0.77;0.10;;;13.80;48.50;;;;;;6203767;28;20459;-72
2020/12/04 07:38:09;;;;;;;5.75;0.30;;;13.80;48.70;;;;;;6217430;28;20033;-73
2020/12/04 07:41:22;;;;;;;0.00;0.00;;;13.80;49.30;;;;;;6216287;28;20045;-73
2020/12/04 07:44:28;;;;;;;1.30;0.20;;;13.80;48.50;;;;;;6218691;28;20050;-73
2020/12/04 07:47:29;;;;;;;0.22;0.20;;;13.90;48.40;;;;;;6221033;28;20057;-72
2020/12/04 07:50:30;;;;;;;0.70;0.35;;;13.90;48.20;;;;;;6222953;28;20038;-73
2020/12/04 07:53:33;;;;;;;0.20;0.20;;;14.00;48.20;;;;;;6219363;28;20041;-73
2020/12/04 07:56:36;;;;;;;0.20;0.13;;;14.00;48.20;;;;;;6220439;28;20038;-73
2020/12/04 07:59:38;;;;;;;0.95;0.40;;;14.00;48.30;;;;;;6217598;28;20030;-74
2020/12/04 08:02:39;;;;;;;0.08;0.08;;;14.10;48.20;;;;;;6236419;28;20030;-72
2020/12/04 08:05:41;;;;;;;0.10;0.10;;;14.10;48.30;;;;;;6220042;28;20035;-72
2020/12/04 08:08:42;;;;;;;0.15;0.15;;;14.10;48.30;;;;;;6217155;28;20077;-73
2020/12/04 08:11:55;;;;;;;3.40;0.50;;;14.10;48.20;;;;;;6235636;28;20042;-72
2020/12/04 08:14:57;;;;;;;0.95;0.20;;;14.20;48.10;;;;;;6236644;28;20045;-73
2020/12/04 08:18:01;;;;;;;0.10;0.10;;;14.20;47.90;;;;;;6225623;28;20044;-73
2020/12/04 08:21:05;;;;;;;0.10;0.10;;;14.20;47.70;;;;;;6223168;28;20045;-72
2020/12/04 08:24:06;;;;;;;0.45;0.30;;;14.20;47.50;;;;;;6208658;28;20124;-73
2020/12/04 08:27:14;;;;;;;0.30;0.20;;;14.30;47.40;;;;;;6244078;28;20041;-73
2020/12/04 08:30:19;;;;;;;4.70;0.30;;;14.30;47.20;;;;;;6214514;28;20109;-72
2020/12/04 08:33:20;;;;;;;0.80;0.20;;;14.40;47.10;;;;;;6220334;28;20044;-72
2020/12/04 08:36:20;;;;;;;1.58;0.43;;;14.40;47.00;;;;;;6217002;28;20033;-72
2020/12/04 08:39:36;;;;;;;2.42;0.40;;;14.40;46.90;;;;;;6234792;28;20042;-72
2020/12/04 08:42:37;;;;;;;0.20;0.20;;;14.40;46.90;;;;;;6215600;28;20386;-72
2020/12/04 08:45:40;;;;;;;0.10;0.10;;;14.50;46.80;;;;;;6217986;28;20053;-72
2020/12/04 08:48:41;;;;;;;0.28;0.20;;;14.50;46.80;;;;;;6219574;28;20030;-72
2020/12/04 08:51:48;;;;;;;0.20;0.20;;;14.50;46.90;;;;;;6219324;28;20068;-72
2020/12/04 08:54:48;;;;;;;2.92;0.40;;;14.50;46.90;;;;;;6233606;28;20136;-73
2020/12/04 08:57:52;;;;;;;1.17;0.30;;;14.50;46.70;;;;;;6253132;28;20033;-73
2020/12/04 09:00:55;;;;;;;1.77;0.52;;;14.50;46.50;;;;;;6258806;28;20052;-73
2020/12/04 09:03:56;;;;;;;1.23;0.50;;;14.50;46.70;;;;;;6243693;28;20041;-72
2020/12/04 09:06:57;;;;;;;0.32;0.30;;;14.50;47.60;;;;;;6221113;28;20034;-73
2020/12/04 09:09:58;;;;;;;1.38;0.45;;;14.10;48.90;;;;;;6242373;28;20087;-73
2020/12/04 09:12:59;;;;;;;3.58;0.60;;;13.60;50.30;;;;;;6242704;28;20029;-73
2020/12/04 09:16:00;;;;;;;5.75;0.50;;;13.10;51.90;;;;;;6241856;28;20049;-72
2020/12/04 09:19:01;;;;;;;0.55;0.40;;;12.60;53.80;;;;;;6242634;28;20049;-72
2020/12/04 09:22:01;;;;;;;0.85;0.25;;;12.20;55.10;;;;;;6243136;28;20045;-72
2020/12/04 09:25:04;;;;;;;1.00;0.63;;;11.90;56.30;;;;;;6239325;28;20037;-72
2020/12/04 09:28:05;;;;;;;0.88;0.47;;;11.60;57.10;;;;;;6241717;28;20420;-72
2020/12/04 09:31:06;;;;;;;0.52;0.50;;;11.40;58.30;;;;;;6245889;28;20029;-73
2020/12/04 09:34:07;;;;;;;1.65;0.98;;;11.20;59.30;;;;;;6231935;28;20042;-72
2020/12/04 09:37:17;;;;;;;2.53;0.40;;;11.00;60.30;;;;;;6219820;28;20084;-73
2020/12/04 09:40:19;;;;;;;1.40;0.75;;;10.90;61.20;;;;;;6215940;28;22632;-72
2020/12/04 09:43:20;;;;;;;0.60;0.47;;;10.70;63.10;;;;;;6239149;28;20048;-72
2020/12/04 09:46:21;;;;;;;0.82;0.35;;;10.50;63.70;;;;;;6240309;28;20033;-72
2020/12/04 09:49:21;;;;;;;0.32;0.10;;;10.40;63.90;;;;;;6241791;28;20021;-72
2020/12/04 09:52:23;;;;;;;1.00;0.40;;;10.40;64.80;;;;;;6267775;28;20103;-72
2020/12/04 09:55:26;;;;;;;1.35;0.63;;;10.40;65.80;;;;;;6255817;28;20116;-73
2020/12/04 09:58:27;;;;;;;4.05;0.80;;;10.40;66.10;;;;;;6241100;28;20029;-72
2020/12/04 10:01:28;;;;;;;4.03;0.50;;;10.30;66.40;;;;;;6271043;28;20048;-73
2020/12/04 10:04:29;;;;;;;5.43;0.82;;;10.30;66.50;;;;;;6241207;28;20041;-73
2020/12/04 10:07:30;;;;;;;2.10;0.68;;;10.30;66.50;;;;;;6273432;28;20103;-72
2020/12/04 10:10:31;;;;;;;1.25;0.50;;;10.30;66.40;;;;;;6240591;28;20041;-74
2020/12/04 10:13:32;;;;;;;2.15;0.32;;;10.30;66.30;;;;;;6241907;28;20029;-73
2020/12/04 10:16:39;;;;;;;1.10;0.60;;;10.30;66.60;;;;;;6235732;28;20131;-73
2020/12/04 10:19:43;;;;;;;0.30;0.28;;;10.20;66.50;;;;;;6255714;28;20045;-75
2020/12/04 10:22:46;;;;;;;4.18;0.70;;;10.20;66.20;;;;;;6239508;28;20030;-72
2020/12/04 10:25:46;;;;;;;0.80;0.52;;;10.10;66.20;;;;;;6216391;28;20098;-74
2020/12/04 10:28:48;;;;;;;0.40;0.40;;;10.10;66.90;;;;;;6249171;28;20076;-73
2020/12/04 10:31:49;;;;;;;1.65;0.30;;;10.00;67.10;;;;;;6242736;28;20151;-73
2020/12/04 10:34:50;;;;;;;0.20;0.20;;;10.00;67.10;;;;;;6244152;28;20084;-74
2020/12/04 10:37:51;;;;;;;0.40;0.30;;;9.90;67.00;;;;;;6238691;28;20120;-73
2020/12/04 10:40:52;;;;;;;0.40;0.32;;;9.80;67.00;;;;;;6242658;28;20041;-72
2020/12/04 10:43:53;;;;;;;0.57;0.30;;;9.70;67.30;;;;;;6240503;28;20048;-73
2020/12/04 10:46:54;;;;;;;2.70;0.38;;;9.70;67.70;;;;;;6242643;28;20029;-73
2020/12/04 10:49:54;;;;;;;0.40;0.10;;;9.60;67.80;;;;;;6244740;28;20057;-72
2020/12/04 10:52:55;;;;;;;0.93;0.17;;;9.50;67.80;;;;;;6240364;28;20037;-72
2020/12/04 10:55:56;;;;;;;0.85;0.35;;;9.50;67.90;;;;;;6242273;28;20120;-72
2020/12/04 10:58:59;;;;;;;1.05;0.20;;;9.50;68.00;;;;;;6242110;28;20038;-74
2020/12/04 11:02:16;;;;;;;0.43;0.30;;;9.50;67.90;;;;;;6239092;28;20029;-73
2020/12/04 11:05:39;;;;;;;0.38;0.25;;;9.40;67.90;;;;;;6221877;28;20506;-73
2020/12/04 11:08:40;;;;;;;0.20;0.20;;;9.30;67.80;;;;;;6265703;28;20037;-72
2020/12/04 11:11:41;;;;;;;1.35;0.32;;;9.30;68.00;;;;;;6242739;28;20041;-73
2020/12/04 11:14:43;;;;;;;4.88;3.10;;;9.30;68.10;;;;;;6240005;28;20042;-74
2020/12/04 11:17:44;;;;;;;0.32;0.20;;;9.30;68.20;;;;;;6243030;28;20042;-73
2020/12/04 11:20:45;;;;;;;2.70;0.52;;;9.30;67.90;;;;;;6243697;28;20045;-74
2020/12/04 11:23:46;;;;;;;1.10;0.47;;;9.30;67.70;;;;;;6237317;28;20053;-73
2020/12/04 11:26:47;;;;;;;1.42;0.25;;;9.20;67.40;;;;;;6242491;28;20029;-72
2020/12/04 11:29:48;;;;;;;0.30;0.20;;;9.10;67.20;;;;;;6250362;28;20492;-73
2020/12/04 11:32:50;;;;;;;1.38;0.57;;;9.00;67.40;;;;;;6224526;28;20052;-73
2020/12/04 11:35:51;;;;;;;0.40;0.25;;;9.00;67.40;;;;;;6243560;28;20389;-72
2020/12/04 11:38:52;;;;;;;3.15;0.30;;;9.00;67.40;;;;;;6243454;28;20042;-73
2020/12/04 11:41:53;;;;;;;0.77;0.40;;;8.90;67.30;;;;;;6245295;28;20038;-73
2020/12/04 11:44:58;;;;;;;4.22;0.68;;;8.90;67.40;;;;;;6240850;28;20498;-74
2020/12/04 11:48:00;;;;;;;0.43;0.32;;;8.90;67.60;;;;;;6241695;28;20041;-73
2020/12/04 11:51:01;;;;;;;1.33;0.40;;;8.90;67.60;;;;;;6240397;28;20437;-72
2020/12/04 11:54:02;;;;;;;0.55;0.20;;;8.90;67.40;;;;;;6259612;28;20520;-72
2020/12/04 11:57:06;;;;;;;0.95;0.40;;;8.80;67.40;;;;;;6242870;28;20099;-71
2020/12/04 12:00:11;;;;;;;2.72;0.80;;;8.80;67.40;;;;;;6231701;28;20450;-74
2020/12/04 12:03:13;;;;;;;0.30;0.30;;;8.90;67.40;;;;;;6229626;28;20126;-74
2020/12/04 12:06:14;;;;;;;0.45;0.45;;;8.80;67.30;;;;;;6216791;28;20034;-73
2020/12/04 12:09:15;;;;;;;0.98;0.68;;;8.80;67.40;;;;;;6217864;28;20045;-73
2020/12/04 12:12:18;;;;;;;3.42;0.80;;;8.80;67.40;;;;;;6231080;28;20041;-74
2020/12/04 12:15:19;;;;;;;0.77;0.38;;;8.70;67.50;;;;;;6213469;28;20045;-74
2020/12/04 12:18:20;;;;;;;1.33;0.47;;;8.60;67.50;;;;;;6197719;28;20030;-72
2020/12/04 12:21:22;;;;;;;1.35;0.40;;;8.60;67.80;;;;;;6208769;28;20343;-73
2020/12/04 12:24:23;;;;;;;1.90;0.80;;;8.60;67.90;;;;;;6215394;28;20092;-73
2020/12/04 12:27:24;;;;;;;1.83;0.63;;;8.70;68.40;;;;;;6217305;28;20048;-73
2020/12/04 12:30:27;;;;;;;1.23;0.80;;;8.80;69.00;;;;;;6216700;28;20120;-73
2020/12/04 12:33:28;;;;;;;7.35;1.00;;;8.90;68.90;;;;;;6198665;28;20046;-73
2020/12/04 12:36:29;;;;;;;8.60;2.88;;;9.00;69.30;;;;;;6234270;28;20418;-73
2020/12/04 12:39:30;;;;;;;1.67;1.02;;;9.00;69.40;;;;;;6238866;28;20038;-72
2020/12/04 12:42:31;;;;;;;1.85;1.17;;;9.20;69.40;;;;;;6215269;28;20119;-72
2020/12/04 12:45:32;;;;;;;0.98;0.77;;;9.30;69.20;;;;;;6222043;28;20041;-73
2020/12/04 12:48:34;;;;;;;1.33;0.73;;;9.40;68.90;;;;;;6239797;28;20030;-74
2020/12/04 12:51:34;;;;;;;0.73;0.60;;;9.40;68.50;;;;;;6235909;28;20124;-74
2020/12/04 12:54:36;;;;;;;6.72;1.83;;;9.40;67.90;;;;;;6234313;28;20034;-72
2020/12/04 12:57:37;;;;;;;2.00;1.13;;;9.30;67.40;;;;;;6225944;28;20418;-72
2020/12/04 13:00:39;;;;;;;1.10;0.52;;;9.20;67.30;;;;;;6233706;28;20030;-72
2020/12/04 13:03:41;;;;;;;0.73;0.63;;;9.20;67.10;;;;;;6215807;28;20030;-72
2020/12/04 13:06:46;;;;;;;2.13;0.77;;;9.00;67.00;;;;;;6235574;28;20087;-73
2020/12/04 13:09:48;;;;;;;1.85;1.13;;;9.10;67.20;;;;;;6255617;28;20117;-73
2020/12/04 13:12:49;;;;;;;7.85;1.00;;;9.00;67.20;;;;;;6257472;28;20049;-73
2020/12/04 13:15:50;;;;;;;0.75;0.60;;;9.00;67.50;;;;;;6229950;28;20037;-72
2020/12/04 13:18:51;;;;;;;1.73;0.45;;;9.00;67.50;;;;;;6243237;28;20033;-73
2020/12/04 13:21:59;;;;;;;0.73;0.50;;;8.90;67.50;;;;;;6270556;28;20128;-72
2020/12/04 13:25:01;;;;;;;1.17;0.75;;;9.00;67.80;;;;;;6236943;28;20052;-73
2020/12/04 13:28:03;;;;;;;4.28;1.38;;;8.90;67.90;;;;;;6240824;28;20029;-73
2020/12/04 13:31:04;;;;;;;1.13;0.73;;;8.90;67.90;;;;;;6256814;28;20479;-72
2020/12/04 13:34:06;;;;;;;1.00;0.40;;;9.10;68.20;;;;;;6219570;28;20038;-72
2020/12/04 13:37:08;;;;;;;0.75;0.55;;;8.90;67.80;;;;;;6215088;28;20037;-73
2020/12/04 13:40:08;;;;;;;1.02;0.52;;;8.90;67.50;;;;;;6216266;28;20038;-72
2020/12/04 13:43:10;;;;;;;2.75;1.20;;;8.80;67.20;;;;;;6216820;28;20048;-74
2020/12/04 13:46:11;;;;;;;1.95;0.93;;;8.80;67.30;;;;;;6215422;28;20371;-72
2020/12/04 13:49:13;;;;;;;0.90;0.43;;;8.70;67.10;;;;;;6223573;28;20072;-73
2020/12/04 13:52:14;;;;;;;0.80;0.60;;;8.70;67.10;;;;;;6219346;28;20237;-74
2020/12/04 13:55:15;;;;;;;0.98;0.60;;;8.60;67.10;;;;;;6236644;28;20128;-73
2020/12/04 13:58:16;;;;;;;1.30;0.65;;;8.60;67.20;;;;;;6237803;28;20042;-73
2020/12/04 14:01:20;;;;;;;0.68;0.47;;;8.50;66.60;;;;;;6239603;28;20048;-72
2020/12/04 14:04:21;;;;;;;1.33;0.60;;;8.50;66.50;;;;;;6239701;28;20110;-73
2020/12/04 14:07:24;;;;;;;2.28;0.93;;;8.40;66.60;;;;;;6221454;28;20082;-73
2020/12/04 14:10:25;;;;;;;1.65;0.98;;;8.30;66.60;;;;;;6216271;28;20065;-73
2020/12/04 14:13:26;;;;;;;3.30;1.33;;;8.30;66.70;;;;;;6232489;28;20084;-73
2020/12/04 14:16:28;;;;;;;0.90;0.70;;;8.20;66.70;;;;;;6217275;28;20037;-73
2020/12/04 14:19:29;;;;;;;1.33;0.88;;;8.20;66.90;;;;;;6240403;28;20057;-72
2020/12/04 14:22:30;;;;;;;1.42;0.68;;;8.30;67.00;;;;;;6230528;28;20081;-74
2020/12/04 14:25:32;;;;;;;0.50;0.50;;;8.30;66.80;;;;;;6220343;28;20045;-71
2020/12/04 14:28:33;;;;;;;1.75;0.93;;;8.30;66.60;;;;;;6219963;28;20455;-72
2020/12/04 14:31:34;;;;;;;1.60;0.80;;;8.30;66.60;;;;;;6215349;28;20045;-73
2020/12/04 14:34:35;;;;;;;2.67;0.50;;;8.40;66.50;;;;;;6214186;28;20049;-73
2020/12/04 14:37:36;;;;;;;1.27;0.70;;;8.40;66.20;;;;;;6212062;28;20037;-73
2020/12/04 14:40:36;;;;;;;4.63;1.05;;;8.50;66.00;;;;;;6233913;28;20143;-73
2020/12/04 14:43:38;;;;;;;1.17;0.63;;;8.50;65.80;;;;;;6218114;28;20366;-72
2020/12/04 14:46:39;;;;;;;1.83;1.50;;;8.50;65.60;;;;;;6220056;28;20045;-73
2020/12/04 14:49:40;;;;;;;2.10;1.17;;;8.50;65.30;;;;;;6219719;28;20037;-73
2020/12/04 14:52:41;;;;;;;2.70;1.45;;;8.60;65.00;;;;;;6217815;28;20093;-73
2020/12/04 14:55:42;;;;;;;1.52;0.80;;;8.60;65.10;;;;;;6240613;28;20517;-73
2020/12/04 14:58:43;;;;;;;1.85;1.05;;;8.60;65.00;;;;;;6224773;28;20455;-73
2020/12/04 15:01:48;;;;;;;0.77;0.77;;;8.60;64.90;;;;;;6238140;28;20041;-73
2020/12/04 15:04:49;;;;;;;8.00;2.15;;;8.60;64.70;;;;;;6250743;28;20037;-72
2020/12/04 15:07:50;;;;;;;4.70;1.23;;;8.60;64.90;;;;;;6219385;28;20476;-72
2020/12/04 15:10:52;;;;;;;1.25;0.90;;;8.60;65.00;;;;;;6235826;28;20120;-74
2020/12/04 15:13:53;;;;;;;1.67;0.93;;;8.60;65.00;;;;;;6228420;28;20041;-74
2020/12/04 15:16:54;;;;;;;1.08;0.60;;;8.60;64.70;;;;;;6248338;28;20030;-73
2020/12/04 15:19:55;;;;;;;1.83;0.93;;;8.70;64.60;;;;;;6218156;28;20344;-74
2020/12/04 15:22:56;;;;;;;1.90;0.85;;;8.70;64.60;;;;;;6214147;28;20061;-73
2020/12/04 15:25:57;;;;;;;2.15;0.90;;;8.70;64.60;;;;;;6245562;28;20423;-73
2020/12/04 15:28:58;;;;;;;2.03;1.20;;;8.70;64.50;;;;;;6228079;28;20044;-72
2020/12/04 15:31:59;;;;;;;2.42;1.02;;;8.70;64.40;;;;;;6261226;28;20084;-72
2020/12/04 15:34:59;;;;;;;2.85;1.00;;;8.60;64.20;;;;;;6261030;28;20037;-73
2020/12/04 15:38:01;;;;;;;7.20;2.63;;;8.60;64.30;;;;;;6247464;28;20120;-74
2020/12/04 15:41:02;;;;;;;7.15;3.58;;;8.50;64.70;;;;;;6245724;28;20103;-74
2020/12/04 15:48:18;;;;;;;2.05;0.90;;;8.50;65.30;;;;;;6243036;28;20443;-72
2020/12/04 15:51:19;;;;;;;2.25;1.30;;;8.40;65.60;;;;;;6259528;28;20099;-73
2020/12/04 15:54:20;;;;;;;4.13;1.50;;;8.40;65.50;;;;;;6245891;28;20358;-73
2020/12/04 15:57:21;;;;;;;2.42;1.50;;;8.40;65.60;;;;;;6242963;28;20106;-73
2020/12/04 16:00:22;;;;;;;6.90;3.10;;;8.40;65.80;;;;;;6245540;28;20110;-73
2020/12/04 16:03:23;;;;;;;6.18;2.85;;;8.40;66.10;;;;;;6258941;28;20474;-73